Richland, Iowa
Current Conditions -  °F | °C
As of 6:55 PM on Wednesday 22 Oct 2014 (Local Time) from KFFL Reporting Station
Clear Clear  
Wind Chill: 50°   Ceiling: Unl
Heat Index: 50°   Visibility: NA
Dew Point: 39°   Wind: 7mph
Humidity: 66%   Direction: 130°SE
Pressure: 30.19"   Gusts: NA
Location:  41.19°N, 91.99°W
Report Text: KFFL 222355Z AUTO 13006KT CLR 10/04 A3019 RMK AO2
Loading
Personal Weather Stations






























Interactive Weather Map
Tropical Storm Tracking
New forecast layout! Learn more

10-Day Weather Forecast

Advertisements
Track Severe Weather on mobile